Air Navigation Services of Czech Republic
Airport: LKKV Updated:  28.01.2021 02:00:26  UTC
 METAR LKKV 28.01. 02:00 ...
METAR LKKV 280200Z 25007KT 200V280 9999 OVC006 M01/M01 Q1009 R29/////// RMK REG QNH 1006=
 TAF LKKV 27.01. 23:00 ...
TAF LKKV 272300Z 2800/2906 23010KT 9999 BKN009      TEMPO 2800/2812 23015KT 4000 -SN BR BKN004      BECMG 2812/2814 26006KT 5000 SN BKN007      TEMPO 2814/2906 0400 SN FG BKN001=
 WARNING LKKV 27.01. 23:18 ...
LKKV AD WRNG 4 VALID 272358/280415 SN 2CM FCST NC=